sensor_id;sensor_type;location;lat;lon;timestamp;P1;durP1;ratioP1;P2;durP2;ratioP2
80185;SDS011;69904;52.122;5.422;2024-03-06T00:00:27;22.50;;;11.73;;
80185;SDS011;69904;52.122;5.422;2024-03-06T00:02:53;19.30;;;11.30;;
80185;SDS011;69904;52.122;5.422;2024-03-06T00:05:21;20.88;;;11.13;;
80185;SDS011;69904;52.122;5.422;2024-03-06T00:07:47;25.13;;;12.07;;
80185;SDS011;69904;52.122;5.422;2024-03-06T00:10:14;18.27;;;11.20;;
80185;SDS011;69904;52.122;5.422;2024-03-06T00:12:41;18.40;;;10.65;;
80185;SDS011;69904;52.122;5.422;2024-03-06T00:15:08;19.13;;;11.18;;
80185;SDS011;69904;52.122;5.422;2024-03-06T00:17:34;16.52;;;9.95;;
80185;SDS011;69904;52.122;5.422;2024-03-06T00:20:01;17.17;;;10.85;;
80185;SDS011;69904;52.122;5.422;2024-03-06T00:22:31;18.08;;;10.50;;
80185;SDS011;69904;52.122;5.422;2024-03-06T00:24:58;21.27;;;11.75;;
80185;SDS011;69904;52.122;5.422;2024-03-06T00:27:24;17.85;;;11.10;;
80185;SDS011;69904;52.122;5.422;2024-03-06T00:29:50;18.77;;;11.18;;
80185;SDS011;69904;52.122;5.422;2024-03-06T00:32:17;19.30;;;11.40;;
80185;SDS011;69904;52.122;5.422;2024-03-06T00:34:43;19.35;;;10.77;;
80185;SDS011;69904;52.122;5.422;2024-03-06T00:37:10;18.23;;;10.63;;
80185;SDS011;69904;52.122;5.422;2024-03-06T00:39:36;20.58;;;11.38;;
80185;SDS011;69904;52.122;5.422;2024-03-06T00:42:03;15.23;;;9.35;;
80185;SDS011;69904;52.122;5.422;2024-03-06T00:44:29;17.45;;;10.52;;
80185;SDS011;69904;52.122;5.422;2024-03-06T00:46:56;16.60;;;10.23;;
80185;SDS011;69904;52.122;5.422;2024-03-06T00:49:23;15.57;;;9.88;;
80185;SDS011;69904;52.122;5.422;2024-03-06T00:51:49;18.75;;;10.70;;
80185;SDS011;69904;52.122;5.422;2024-03-06T00:54:16;21.70;;;11.20;;
80185;SDS011;69904;52.122;5.422;2024-03-06T00:56:43;19.20;;;10.13;;
80185;SDS011;69904;52.122;5.422;2024-03-06T00:59:10;18.33;;;10.02;;
80185;SDS011;69904;52.122;5.422;2024-03-06T01:01:37;21.50;;;11.63;;
80185;SDS011;69904;52.122;5.422;2024-03-06T01:04:03;15.40;;;9.88;;
80185;SDS011;69904;52.122;5.422;2024-03-06T01:06:30;18.70;;;10.80;;
80185;SDS011;69904;52.122;5.422;2024-03-06T01:08:56;20.95;;;10.20;;
80185;SDS011;69904;52.122;5.422;2024-03-06T01:11:24;19.02;;;10.93;;
80185;SDS011;69904;52.122;5.422;2024-03-06T01:13:52;17.23;;;9.80;;
80185;SDS011;69904;52.122;5.422;2024-03-06T01:16:20;19.27;;;10.10;;
80185;SDS011;69904;52.122;5.422;2024-03-06T01:18:46;21.05;;;10.38;;
80185;SDS011;69904;52.122;5.422;2024-03-06T01:21:13;17.58;;;9.50;;
80185;SDS011;69904;52.122;5.422;2024-03-06T01:23:40;21.15;;;11.32;;
80185;SDS011;69904;52.122;5.422;2024-03-06T01:26:06;19.92;;;10.40;;
80185;SDS011;69904;52.122;5.422;2024-03-06T01:28:33;17.50;;;10.57;;
80185;SDS011;69904;52.122;5.422;2024-03-06T01:30:59;18.83;;;11.38;;
80185;SDS011;69904;52.122;5.422;2024-03-06T01:33:26;18.83;;;10.23;;
80185;SDS011;69904;52.122;5.422;2024-03-06T01:35:52;18.38;;;10.85;;
80185;SDS011;69904;52.122;5.422;2024-03-06T01:38:19;22.92;;;11.70;;
80185;SDS011;69904;52.122;5.422;2024-03-06T01:40:46;19.60;;;9.77;;
80185;SDS011;69904;52.122;5.422;2024-03-06T01:43:22;20.17;;;10.15;;
80185;SDS011;69904;52.122;5.422;2024-03-06T01:45:51;18.23;;;9.88;;
80185;SDS011;69904;52.122;5.422;2024-03-06T01:48:21;20.52;;;10.18;;
80185;SDS011;69904;52.122;5.422;2024-03-06T01:50:52;15.68;;;9.07;;
80185;SDS011;69904;52.122;5.422;2024-03-06T01:53:22;20.42;;;10.45;;
80185;SDS011;69904;52.122;5.422;2024-03-06T01:55:52;17.83;;;9.35;;
80185;SDS011;69904;52.122;5.422;2024-03-06T01:58:19;15.80;;;9.75;;
80185;SDS011;69904;52.122;5.422;2024-03-06T02:00:48;13.07;;;8.02;;
80185;SDS011;69904;52.122;5.422;2024-03-06T02:03:15;13.00;;;8.40;;
80185;SDS011;69904;52.122;5.422;2024-03-06T02:05:45;17.02;;;9.32;;
80185;SDS011;69904;52.122;5.422;2024-03-06T02:08:14;15.32;;;8.35;;
80185;SDS011;69904;52.122;5.422;2024-03-06T02:10:41;15.18;;;8.63;;
80185;SDS011;69904;52.122;5.422;2024-03-06T02:13:08;13.90;;;7.95;;
80185;SDS011;69904;52.122;5.422;2024-03-06T02:15:35;14.57;;;7.80;;
80185;SDS011;69904;52.122;5.422;2024-03-06T02:18:05;13.43;;;7.93;;
80185;SDS011;69904;52.122;5.422;2024-03-06T02:20:32;12.30;;;7.65;;
80185;SDS011;69904;52.122;5.422;2024-03-06T02:23:00;9.15;;;7.40;;
80185;SDS011;69904;52.122;5.422;2024-03-06T02:25:26;14.38;;;8.25;;
80185;SDS011;69904;52.122;5.422;2024-03-06T02:27:53;12.85;;;7.15;;
80185;SDS011;69904;52.122;5.422;2024-03-06T02:30:20;14.77;;;9.05;;
80185;SDS011;69904;52.122;5.422;2024-03-06T02:35:13;11.90;;;7.00;;
80185;SDS011;69904;52.122;5.422;2024-03-06T02:37:41;12.23;;;8.05;;
80185;SDS011;69904;52.122;5.422;2024-03-06T02:40:10;13.68;;;7.65;;
80185;SDS011;69904;52.122;5.422;2024-03-06T02:42:36;12.88;;;7.82;;
80185;SDS011;69904;52.122;5.422;2024-03-06T02:45:06;11.55;;;7.63;;
80185;SDS011;69904;52.122;5.422;2024-03-06T02:47:33;16.02;;;8.95;;
80185;SDS011;69904;52.122;5.422;2024-03-06T02:50:00;16.08;;;7.88;;
80185;SDS011;69904;52.122;5.422;2024-03-06T02:52:27;9.98;;;6.10;;
80185;SDS011;69904;52.122;5.422;2024-03-06T02:54:53;16.30;;;6.35;;
80185;SDS011;69904;52.122;5.422;2024-03-06T02:57:20;12.50;;;5.82;;
80185;SDS011;69904;52.122;5.422;2024-03-06T02:59:47;23.60;;;6.65;;
80185;SDS011;69904;52.122;5.422;2024-03-06T03:02:13;17.45;;;5.57;;
80185;SDS011;69904;52.122;5.422;2024-03-06T03:04:40;19.52;;;6.45;;
80185;SDS011;69904;52.122;5.422;2024-03-06T03:07:06;8.63;;;5.47;;
80185;SDS011;69904;52.122;5.422;2024-03-06T03:09:33;11.50;;;6.43;;
80185;SDS011;69904;52.122;5.422;2024-03-06T03:11:59;9.57;;;5.57;;
80185;SDS011;69904;52.122;5.422;2024-03-06T03:14:26;8.77;;;5.85;;
80185;SDS011;69904;52.122;5.422;2024-03-06T03:16:52;9.27;;;5.93;;
80185;SDS011;69904;52.122;5.422;2024-03-06T03:21:46;9.77;;;5.43;;
80185;SDS011;69904;52.122;5.422;2024-03-06T03:24:12;8.15;;;5.10;;
80185;SDS011;69904;52.122;5.422;2024-03-06T03:26:39;9.90;;;5.43;;
80185;SDS011;69904;52.122;5.422;2024-03-06T03:29:08;8.75;;;5.82;;
80185;SDS011;69904;52.122;5.422;2024-03-06T03:31:34;9.07;;;5.60;;
80185;SDS011;69904;52.122;5.422;2024-03-06T03:34:02;7.88;;;4.97;;
80185;SDS011;69904;52.122;5.422;2024-03-06T03:36:28;9.25;;;5.57;;
80185;SDS011;69904;52.122;5.422;2024-03-06T03:38:55;9.40;;;5.50;;
80185;SDS011;69904;52.122;5.422;2024-03-06T03:41:21;11.70;;;6.90;;
80185;SDS011;69904;52.122;5.422;2024-03-06T03:43:48;7.80;;;5.40;;
80185;SDS011;69904;52.122;5.422;2024-03-06T03:46:15;12.07;;;5.32;;
80185;SDS011;69904;52.122;5.422;2024-03-06T03:48:41;11.13;;;6.05;;
80185;SDS011;69904;52.122;5.422;2024-03-06T03:51:08;11.60;;;5.80;;
80185;SDS011;69904;52.122;5.422;2024-03-06T03:53:34;12.25;;;6.53;;
80185;SDS011;69904;52.122;5.422;2024-03-06T03:56:01;23.90;;;6.68;;
80185;SDS011;69904;52.122;5.422;2024-03-06T03:58:29;17.38;;;6.93;;
80185;SDS011;69904;52.122;5.422;2024-03-06T04:00:56;16.08;;;6.30;;
80185;SDS011;69904;52.122;5.422;2024-03-06T04:03:22;9.15;;;6.75;;
80185;SDS011;69904;52.122;5.422;2024-03-06T04:05:50;11.38;;;6.05;;
80185;SDS011;69904;52.122;5.422;2024-03-06T04:08:17;16.80;;;6.00;;
80185;SDS011;69904;52.122;5.422;2024-03-06T04:10:43;11.80;;;5.70;;
80185;SDS011;69904;52.122;5.422;2024-03-06T04:13:11;8.60;;;5.68;;
80185;SDS011;69904;52.122;5.422;2024-03-06T04:15:38;8.57;;;4.75;;
80185;SDS011;69904;52.122;5.422;2024-03-06T04:18:05;19.70;;;6.20;;
80185;SDS011;69904;52.122;5.422;2024-03-06T04:20:32;12.15;;;6.30;;
80185;SDS011;69904;52.122;5.422;2024-03-06T04:22:58;8.65;;;6.13;;
80185;SDS011;69904;52.122;5.422;2024-03-06T04:25:25;11.05;;;5.10;;
80185;SDS011;69904;52.122;5.422;2024-03-06T04:27:51;18.75;;;5.38;;
80185;SDS011;69904;52.122;5.422;2024-03-06T04:30:18;15.43;;;6.10;;
80185;SDS011;69904;52.122;5.422;2024-03-06T04:32:44;10.88;;;5.15;;
80185;SDS011;69904;52.122;5.422;2024-03-06T04:35:10;16.42;;;5.18;;
80185;SDS011;69904;52.122;5.422;2024-03-06T04:37:37;22.83;;;5.75;;
80185;SDS011;69904;52.122;5.422;2024-03-06T04:40:05;7.70;;;4.75;;
80185;SDS011;69904;52.122;5.422;2024-03-06T04:42:34;11.48;;;5.05;;
80185;SDS011;69904;52.122;5.422;2024-03-06T04:45:10;9.20;;;5.60;;
80185;SDS011;69904;52.122;5.422;2024-03-06T04:47:38;7.97;;;4.93;;
80185;SDS011;69904;52.122;5.422;2024-03-06T04:50:08;9.38;;;4.15;;
80185;SDS011;69904;52.122;5.422;2024-03-06T04:52:37;8.38;;;5.13;;
80185;SDS011;69904;52.122;5.422;2024-03-06T04:55:04;7.85;;;4.60;;
80185;SDS011;69904;52.122;5.422;2024-03-06T04:57:32;11.45;;;4.80;;
80185;SDS011;69904;52.122;5.422;2024-03-06T04:59:58;7.53;;;4.53;;
80185;SDS011;69904;52.122;5.422;2024-03-06T05:02:25;9.00;;;5.35;;
80185;SDS011;69904;52.122;5.422;2024-03-06T05:04:54;9.23;;;6.07;;
80185;SDS011;69904;52.122;5.422;2024-03-06T05:07:38;10.02;;;6.45;;
80185;SDS011;69904;52.122;5.422;2024-03-06T05:10:22;13.88;;;6.88;;
80185;SDS011;69904;52.122;5.422;2024-03-06T05:13:06;10.32;;;6.57;;
80185;SDS011;69904;52.122;5.422;2024-03-06T05:15:50;11.48;;;6.03;;
80185;SDS011;69904;52.122;5.422;2024-03-06T05:18:34;14.85;;;6.30;;
80185;SDS011;69904;52.122;5.422;2024-03-06T05:21:19;11.98;;;6.97;;
80185;SDS011;69904;52.122;5.422;2024-03-06T05:24:05;13.55;;;6.18;;
80185;SDS011;69904;52.122;5.422;2024-03-06T05:26:49;14.75;;;6.68;;
80185;SDS011;69904;52.122;5.422;2024-03-06T05:29:34;9.13;;;5.68;;
80185;SDS011;69904;52.122;5.422;2024-03-06T05:32:20;16.20;;;7.03;;
80185;SDS011;69904;52.122;5.422;2024-03-06T05:35:04;16.00;;;5.65;;
80185;SDS011;69904;52.122;5.422;2024-03-06T05:37:47;8.98;;;4.50;;
80185;SDS011;69904;52.122;5.422;2024-03-06T05:40:31;9.52;;;5.50;;
80185;SDS011;69904;52.122;5.422;2024-03-06T05:43:19;19.17;;;5.53;;
80185;SDS011;69904;52.122;5.422;2024-03-06T05:46:03;17.20;;;5.72;;
80185;SDS011;69904;52.122;5.422;2024-03-06T05:48:47;11.70;;;5.35;;
80185;SDS011;69904;52.122;5.422;2024-03-06T05:51:31;10.82;;;5.32;;
80185;SDS011;69904;52.122;5.422;2024-03-06T05:54:15;8.10;;;4.88;;
80185;SDS011;69904;52.122;5.422;2024-03-06T05:57:00;10.98;;;4.30;;
80185;SDS011;69904;52.122;5.422;2024-03-06T05:59:44;8.95;;;4.90;;
80185;SDS011;69904;52.122;5.422;2024-03-06T06:02:11;10.25;;;5.50;;
80185;SDS011;69904;52.122;5.422;2024-03-06T06:04:37;14.07;;;6.03;;
80185;SDS011;69904;52.122;5.422;2024-03-06T06:07:17;12.15;;;5.63;;
80185;SDS011;69904;52.122;5.422;2024-03-06T06:09:43;10.95;;;4.80;;
80185;SDS011;69904;52.122;5.422;2024-03-06T06:12:10;7.18;;;5.28;;
80185;SDS011;69904;52.122;5.422;2024-03-06T06:14:36;11.27;;;6.25;;
80185;SDS011;69904;52.122;5.422;2024-03-06T06:17:03;21.75;;;7.72;;
80185;SDS011;69904;52.122;5.422;2024-03-06T06:19:29;29.83;;;8.70;;
80185;SDS011;69904;52.122;5.422;2024-03-06T06:21:56;23.58;;;6.78;;
80185;SDS011;69904;52.122;5.422;2024-03-06T06:24:22;19.55;;;7.55;;
80185;SDS011;69904;52.122;5.422;2024-03-06T06:26:49;15.35;;;6.85;;
80185;SDS011;69904;52.122;5.422;2024-03-06T06:29:15;14.88;;;6.70;;
80185;SDS011;69904;52.122;5.422;2024-03-06T06:31:42;21.73;;;6.60;;
80185;SDS011;69904;52.122;5.422;2024-03-06T06:34:08;13.32;;;5.75;;
80185;SDS011;69904;52.122;5.422;2024-03-06T06:36:35;17.65;;;6.38;;
80185;SDS011;69904;52.122;5.422;2024-03-06T06:39:04;15.50;;;6.22;;
80185;SDS011;69904;52.122;5.422;2024-03-06T06:41:32;17.67;;;7.05;;
80185;SDS011;69904;52.122;5.422;2024-03-06T06:43:58;10.90;;;6.70;;
80185;SDS011;69904;52.122;5.422;2024-03-06T06:46:25;18.42;;;8.15;;
80185;SDS011;69904;52.122;5.422;2024-03-06T06:48:51;12.57;;;7.03;;
80185;SDS011;69904;52.122;5.422;2024-03-06T06:51:18;26.65;;;7.40;;
80185;SDS011;69904;52.122;5.422;2024-03-06T06:53:45;16.63;;;7.95;;
80185;SDS011;69904;52.122;5.422;2024-03-06T06:56:11;27.73;;;8.73;;
80185;SDS011;69904;52.122;5.422;2024-03-06T06:58:38;24.27;;;8.02;;
80185;SDS011;69904;52.122;5.422;2024-03-06T07:01:08;30.10;;;8.63;;
80185;SDS011;69904;52.122;5.422;2024-03-06T07:03:36;16.75;;;9.60;;
80185;SDS011;69904;52.122;5.422;2024-03-06T07:06:03;24.15;;;8.95;;
80185;SDS011;69904;52.122;5.422;2024-03-06T07:08:30;21.05;;;8.60;;
80185;SDS011;69904;52.122;5.422;2024-03-06T07:10:56;26.23;;;8.55;;
80185;SDS011;69904;52.122;5.422;2024-03-06T07:13:23;33.60;;;9.20;;
80185;SDS011;69904;52.122;5.422;2024-03-06T07:15:50;18.63;;;8.90;;
80185;SDS011;69904;52.122;5.422;2024-03-06T07:18:16;29.60;;;9.82;;
80185;SDS011;69904;52.122;5.422;2024-03-06T07:20:43;26.63;;;9.05;;
80185;SDS011;69904;52.122;5.422;2024-03-06T07:23:10;26.23;;;8.30;;
80185;SDS011;69904;52.122;5.422;2024-03-06T07:25:36;32.38;;;9.55;;
80185;SDS011;69904;52.122;5.422;2024-03-06T07:28:03;15.43;;;9.48;;
80185;SDS011;69904;52.122;5.422;2024-03-06T07:30:30;25.40;;;9.25;;
80185;SDS011;69904;52.122;5.422;2024-03-06T07:32:57;23.63;;;10.13;;
80185;SDS011;69904;52.122;5.422;2024-03-06T07:35:23;20.42;;;8.73;;
80185;SDS011;69904;52.122;5.422;2024-03-06T07:37:50;17.23;;;10.00;;
80185;SDS011;69904;52.122;5.422;2024-03-06T07:40:17;16.83;;;9.40;;
80185;SDS011;69904;52.122;5.422;2024-03-06T07:42:43;25.48;;;10.25;;
80185;SDS011;69904;52.122;5.422;2024-03-06T07:45:10;23.05;;;9.30;;
80185;SDS011;69904;52.122;5.422;2024-03-06T07:47:36;18.35;;;9.75;;
80185;SDS011;69904;52.122;5.422;2024-03-06T07:52:33;17.55;;;9.38;;
80185;SDS011;69904;52.122;5.422;2024-03-06T07:55:00;22.77;;;10.82;;
80185;SDS011;69904;52.122;5.422;2024-03-06T07:57:26;18.17;;;11.35;;
80185;SDS011;69904;52.122;5.422;2024-03-06T07:59:53;16.98;;;9.23;;
80185;SDS011;69904;52.122;5.422;2024-03-06T08:02:20;23.75;;;10.60;;
80185;SDS011;69904;52.122;5.422;2024-03-06T08:04:48;16.35;;;10.35;;
80185;SDS011;69904;52.122;5.422;2024-03-06T08:07:14;16.80;;;9.60;;
80185;SDS011;69904;52.122;5.422;2024-03-06T08:09:41;19.40;;;10.57;;
80185;SDS011;69904;52.122;5.422;2024-03-06T08:12:08;22.77;;;10.85;;
80185;SDS011;69904;52.122;5.422;2024-03-06T08:14:34;26.10;;;12.23;;
80185;SDS011;69904;52.122;5.422;2024-03-06T08:17:01;20.42;;;10.95;;
80185;SDS011;69904;52.122;5.422;2024-03-06T08:19:28;26.77;;;11.88;;
80185;SDS011;69904;52.122;5.422;2024-03-06T08:21:55;26.15;;;10.02;;
80185;SDS011;69904;52.122;5.422;2024-03-06T08:24:21;21.33;;;10.10;;
80185;SDS011;69904;52.122;5.422;2024-03-06T08:26:48;26.05;;;11.85;;
80185;SDS011;69904;52.122;5.422;2024-03-06T08:29:15;31.95;;;12.80;;
80185;SDS011;69904;52.122;5.422;2024-03-06T08:31:41;24.52;;;11.05;;
80185;SDS011;69904;52.122;5.422;2024-03-06T08:34:08;34.67;;;12.43;;
80185;SDS011;69904;52.122;5.422;2024-03-06T08:36:34;31.73;;;13.18;;
80185;SDS011;69904;52.122;5.422;2024-03-06T08:39:01;23.35;;;10.93;;
80185;SDS011;69904;52.122;5.422;2024-03-06T08:41:27;23.65;;;11.90;;
80185;SDS011;69904;52.122;5.422;2024-03-06T08:43:54;28.08;;;13.40;;
80185;SDS011;69904;52.122;5.422;2024-03-06T08:46:20;27.75;;;13.13;;
80185;SDS011;69904;52.122;5.422;2024-03-06T08:48:47;31.30;;;13.43;;
80185;SDS011;69904;52.122;5.422;2024-03-06T08:51:13;26.27;;;13.50;;
80185;SDS011;69904;52.122;5.422;2024-03-06T08:53:40;28.83;;;12.20;;
80185;SDS011;69904;52.122;5.422;2024-03-06T08:56:07;28.00;;;12.95;;
80185;SDS011;69904;52.122;5.422;2024-03-06T08:58:33;30.90;;;14.18;;
80185;SDS011;69904;52.122;5.422;2024-03-06T09:01:00;29.15;;;13.20;;
80185;SDS011;69904;52.122;5.422;2024-03-06T09:03:26;31.48;;;15.18;;
80185;SDS011;69904;52.122;5.422;2024-03-06T09:05:53;27.13;;;13.50;;
80185;SDS011;69904;52.122;5.422;2024-03-06T09:08:19;33.15;;;13.30;;
80185;SDS011;69904;52.122;5.422;2024-03-06T09:10:46;38.85;;;13.77;;
80185;SDS011;69904;52.122;5.422;2024-03-06T09:13:12;31.55;;;14.63;;
80185;SDS011;69904;52.122;5.422;2024-03-06T09:15:39;26.85;;;12.80;;
80185;SDS011;69904;52.122;5.422;2024-03-06T09:18:06;28.55;;;14.00;;
80185;SDS011;69904;52.122;5.422;2024-03-06T09:20:33;30.25;;;14.18;;
80185;SDS011;69904;52.122;5.422;2024-03-06T09:23:00;24.95;;;13.45;;
80185;SDS011;69904;52.122;5.422;2024-03-06T09:25:27;23.70;;;13.02;;
80185;SDS011;69904;52.122;5.422;2024-03-06T09:27:55;26.60;;;13.80;;
80185;SDS011;69904;52.122;5.422;2024-03-06T09:30:23;21.67;;;13.48;;
80185;SDS011;69904;52.122;5.422;2024-03-06T09:32:49;27.70;;;13.85;;
80185;SDS011;69904;52.122;5.422;2024-03-06T09:35:16;28.23;;;12.85;;
80185;SDS011;69904;52.122;5.422;2024-03-06T09:37:44;32.55;;;14.68;;
80185;SDS011;69904;52.122;5.422;2024-03-06T09:40:17;26.77;;;13.57;;
80185;SDS011;69904;52.122;5.422;2024-03-06T09:42:46;28.70;;;14.13;;
80185;SDS011;69904;52.122;5.422;2024-03-06T09:45:13;25.00;;;13.90;;
80185;SDS011;69904;52.122;5.422;2024-03-06T09:47:40;22.98;;;12.13;;
80185;SDS011;69904;52.122;5.422;2024-03-06T09:50:08;25.60;;;13.68;;
80185;SDS011;69904;52.122;5.422;2024-03-06T09:52:36;23.02;;;12.27;;
80185;SDS011;69904;52.122;5.422;2024-03-06T09:55:03;22.15;;;11.73;;
80185;SDS011;69904;52.122;5.422;2024-03-06T09:57:30;23.08;;;12.32;;
80185;SDS011;69904;52.122;5.422;2024-03-06T09:59:56;23.63;;;12.38;;
80185;SDS011;69904;52.122;5.422;2024-03-06T10:02:36;22.92;;;12.13;;
80185;SDS011;69904;52.122;5.422;2024-03-06T10:05:05;23.67;;;12.30;;
80185;SDS011;69904;52.122;5.422;2024-03-06T10:07:32;22.00;;;11.52;;
80185;SDS011;69904;52.122;5.422;2024-03-06T10:09:59;20.95;;;11.07;;
80185;SDS011;69904;52.122;5.422;2024-03-06T10:12:25;21.90;;;12.23;;
80185;SDS011;69904;52.122;5.422;2024-03-06T10:14:55;22.02;;;12.85;;
80185;SDS011;69904;52.122;5.422;2024-03-06T10:17:23;22.83;;;12.00;;
80185;SDS011;69904;52.122;5.422;2024-03-06T10:19:50;22.38;;;11.23;;
80185;SDS011;69904;52.122;5.422;2024-03-06T10:22:18;22.60;;;11.80;;
80185;SDS011;69904;52.122;5.422;2024-03-06T10:24:45;23.88;;;12.23;;
80185;SDS011;69904;52.122;5.422;2024-03-06T10:27:15;26.38;;;12.68;;
80185;SDS011;69904;52.122;5.422;2024-03-06T10:29:43;25.42;;;13.88;;
80185;SDS011;69904;52.122;5.422;2024-03-06T10:32:10;22.40;;;12.82;;
80185;SDS011;69904;52.122;5.422;2024-03-06T10:37:04;23.45;;;12.07;;
80185;SDS011;69904;52.122;5.422;2024-03-06T10:39:33;23.08;;;12.00;;
80185;SDS011;69904;52.122;5.422;2024-03-06T10:42:04;24.35;;;12.48;;
80185;SDS011;69904;52.122;5.422;2024-03-06T10:44:33;24.25;;;12.07;;
80185;SDS011;69904;52.122;5.422;2024-03-06T10:47:01;22.45;;;12.00;;
80185;SDS011;69904;52.122;5.422;2024-03-06T10:49:29;24.02;;;13.07;;
80185;SDS011;69904;52.122;5.422;2024-03-06T10:52:03;24.20;;;13.05;;
80185;SDS011;69904;52.122;5.422;2024-03-06T10:54:34;23.02;;;12.68;;
80185;SDS011;69904;52.122;5.422;2024-03-06T10:57:03;20.95;;;10.52;;
80185;SDS011;69904;52.122;5.422;2024-03-06T11:01:57;22.23;;;11.55;;
80185;SDS011;69904;52.122;5.422;2024-03-06T11:04:28;19.17;;;10.65;;
80185;SDS011;69904;52.122;5.422;2024-03-06T11:06:57;26.42;;;10.80;;
80185;SDS011;69904;52.122;5.422;2024-03-06T11:09:32;18.77;;;10.35;;
80185;SDS011;69904;52.122;5.422;2024-03-06T11:12:01;21.80;;;11.15;;
80185;SDS011;69904;52.122;5.422;2024-03-06T11:14:32;24.77;;;11.07;;
80185;SDS011;69904;52.122;5.422;2024-03-06T11:17:03;19.85;;;11.15;;
80185;SDS011;69904;52.122;5.422;2024-03-06T11:28:22;19.25;;;10.38;;
80185;SDS011;69904;52.122;5.422;2024-03-06T11:30:59;17.42;;;10.05;;
80185;SDS011;69904;52.122;5.422;2024-03-06T11:39:02;19.38;;;9.93;;
80185;SDS011;69904;52.122;5.422;2024-03-06T11:44:19;18.40;;;10.43;;
80185;SDS011;69904;52.122;5.422;2024-03-06T11:46:48;18.70;;;10.50;;
80185;SDS011;69904;52.122;5.422;2024-03-06T11:49:15;19.52;;;10.38;;
80185;SDS011;69904;52.122;5.422;2024-03-06T11:51:45;20.10;;;10.40;;
80185;SDS011;69904;52.122;5.422;2024-03-06T11:54:12;20.02;;;10.20;;
80185;SDS011;69904;52.122;5.422;2024-03-06T11:59:11;17.38;;;10.25;;
80185;SDS011;69904;52.122;5.422;2024-03-06T12:01:37;16.55;;;9.23;;
80185;SDS011;69904;52.122;5.422;2024-03-06T12:04:04;19.20;;;9.63;;
80185;SDS011;69904;52.122;5.422;2024-03-06T12:06:32;16.98;;;9.73;;
80185;SDS011;69904;52.122;5.422;2024-03-06T12:09:00;18.30;;;10.23;;
80185;SDS011;69904;52.122;5.422;2024-03-06T12:11:26;14.68;;;8.80;;
80185;SDS011;69904;52.122;5.422;2024-03-06T12:13:55;13.02;;;8.70;;
80185;SDS011;69904;52.122;5.422;2024-03-06T12:16:22;16.88;;;9.70;;
80185;SDS011;69904;52.122;5.422;2024-03-06T12:18:54;14.90;;;8.90;;
80185;SDS011;69904;52.122;5.422;2024-03-06T12:21:27;16.67;;;9.45;;
80185;SDS011;69904;52.122;5.422;2024-03-06T12:24:07;16.50;;;9.05;;
80185;SDS011;69904;52.122;5.422;2024-03-06T12:26:36;14.23;;;8.15;;
80185;SDS011;69904;52.122;5.422;2024-03-06T12:29:07;14.65;;;8.43;;
80185;SDS011;69904;52.122;5.422;2024-03-06T12:31:35;13.77;;;7.72;;
80185;SDS011;69904;52.122;5.422;2024-03-06T12:34:03;13.90;;;8.32;;
80185;SDS011;69904;52.122;5.422;2024-03-06T12:36:31;13.68;;;8.40;;
80185;SDS011;69904;52.122;5.422;2024-03-06T12:38:59;14.73;;;7.25;;
80185;SDS011;69904;52.122;5.422;2024-03-06T12:41:27;13.30;;;7.03;;
80185;SDS011;69904;52.122;5.422;2024-03-06T12:43:54;12.65;;;6.90;;
80185;SDS011;69904;52.122;5.422;2024-03-06T12:46:22;11.13;;;6.53;;
80185;SDS011;69904;52.122;5.422;2024-03-06T12:48:50;10.40;;;5.63;;
80185;SDS011;69904;52.122;5.422;2024-03-06T12:51:17;8.38;;;5.03;;
80185;SDS011;69904;52.122;5.422;2024-03-06T12:53:43;7.40;;;4.20;;
80185;SDS011;69904;52.122;5.422;2024-03-06T12:58:36;7.60;;;5.07;;
80185;SDS011;69904;52.122;5.422;2024-03-06T13:01:03;9.65;;;4.68;;
80185;SDS011;69904;52.122;5.422;2024-03-06T13:03:31;9.57;;;5.30;;
80185;SDS011;69904;52.122;5.422;2024-03-06T13:05:58;9.60;;;4.88;;
80185;SDS011;69904;52.122;5.422;2024-03-06T13:08:25;6.50;;;4.65;;
80185;SDS011;69904;52.122;5.422;2024-03-06T13:13:18;10.85;;;5.38;;
80185;SDS011;69904;52.122;5.422;2024-03-06T13:15:45;8.10;;;4.40;;
80185;SDS011;69904;52.122;5.422;2024-03-06T13:18:14;9.88;;;5.55;;
80185;SDS011;69904;52.122;5.422;2024-03-06T13:20:41;9.60;;;5.15;;
80185;SDS011;69904;52.122;5.422;2024-03-06T13:23:08;9.73;;;5.72;;
80185;SDS011;69904;52.122;5.422;2024-03-06T13:25:35;10.18;;;5.40;;
80185;SDS011;69904;52.122;5.422;2024-03-06T13:28:02;7.35;;;4.47;;
80185;SDS011;69904;52.122;5.422;2024-03-06T13:30:30;12.57;;;5.18;;
80185;SDS011;69904;52.122;5.422;2024-03-06T13:32:56;8.63;;;4.82;;
80185;SDS011;69904;52.122;5.422;2024-03-06T13:35:23;8.32;;;5.20;;
80185;SDS011;69904;52.122;5.422;2024-03-06T13:37:49;8.85;;;4.82;;
80185;SDS011;69904;52.122;5.422;2024-03-06T13:40:16;8.93;;;5.32;;
80185;SDS011;69904;52.122;5.422;2024-03-06T13:42:43;8.82;;;5.30;;
80185;SDS011;69904;52.122;5.422;2024-03-06T13:45:10;9.05;;;5.70;;
80185;SDS011;69904;52.122;5.422;2024-03-06T13:47:38;11.70;;;5.93;;
80185;SDS011;69904;52.122;5.422;2024-03-06T13:50:08;13.43;;;6.47;;
80185;SDS011;69904;52.122;5.422;2024-03-06T13:52:39;10.05;;;6.35;;
80185;SDS011;69904;52.122;5.422;2024-03-06T13:55:07;9.77;;;6.03;;
80185;SDS011;69904;52.122;5.422;2024-03-06T13:57:34;11.35;;;6.38;;
80185;SDS011;69904;52.122;5.422;2024-03-06T14:00:05;9.00;;;5.05;;
80185;SDS011;69904;52.122;5.422;2024-03-06T14:02:39;10.45;;;5.63;;
80185;SDS011;69904;52.122;5.422;2024-03-06T14:05:06;10.10;;;5.97;;
80185;SDS011;69904;52.122;5.422;2024-03-06T14:07:33;11.52;;;5.75;;
80185;SDS011;69904;52.122;5.422;2024-03-06T14:10:00;10.82;;;5.68;;
80185;SDS011;69904;52.122;5.422;2024-03-06T14:12:31;11.07;;;5.60;;
80185;SDS011;69904;52.122;5.422;2024-03-06T14:14:58;10.95;;;5.30;;
80185;SDS011;69904;52.122;5.422;2024-03-06T14:17:24;10.98;;;5.82;;
80185;SDS011;69904;52.122;5.422;2024-03-06T14:19:51;11.80;;;6.13;;
80185;SDS011;69904;52.122;5.422;2024-03-06T14:22:17;9.30;;;5.53;;
80185;SDS011;69904;52.122;5.422;2024-03-06T14:24:44;10.18;;;5.97;;
80185;SDS011;69904;52.122;5.422;2024-03-06T14:27:11;13.23;;;5.57;;
80185;SDS011;69904;52.122;5.422;2024-03-06T14:29:42;9.70;;;5.78;;
80185;SDS011;69904;52.122;5.422;2024-03-06T14:32:09;9.35;;;5.70;;
80185;SDS011;69904;52.122;5.422;2024-03-06T14:34:35;11.40;;;5.45;;
80185;SDS011;69904;52.122;5.422;2024-03-06T14:37:02;9.90;;;5.88;;
80185;SDS011;69904;52.122;5.422;2024-03-06T14:39:28;12.40;;;6.53;;
80185;SDS011;69904;52.122;5.422;2024-03-06T14:41:55;10.88;;;5.38;;
80185;SDS011;69904;52.122;5.422;2024-03-06T14:44:21;9.77;;;5.75;;
80185;SDS011;69904;52.122;5.422;2024-03-06T14:46:48;12.48;;;6.80;;
80185;SDS011;69904;52.122;5.422;2024-03-06T14:49:14;10.30;;;5.70;;
80185;SDS011;69904;52.122;5.422;2024-03-06T14:51:42;13.60;;;5.88;;
80185;SDS011;69904;52.122;5.422;2024-03-06T14:54:09;11.68;;;5.35;;
80185;SDS011;69904;52.122;5.422;2024-03-06T14:56:35;8.98;;;4.93;;
80185;SDS011;69904;52.122;5.422;2024-03-06T14:59:02;11.27;;;5.32;;
80185;SDS011;69904;52.122;5.422;2024-03-06T15:01:29;10.57;;;6.28;;
80185;SDS011;69904;52.122;5.422;2024-03-06T15:03:56;9.45;;;5.43;;
80185;SDS011;69904;52.122;5.422;2024-03-06T15:06:22;7.53;;;5.15;;
80185;SDS011;69904;52.122;5.422;2024-03-06T15:08:49;9.68;;;4.43;;
80185;SDS011;69904;52.122;5.422;2024-03-06T15:11:15;12.40;;;5.63;;
80185;SDS011;69904;52.122;5.422;2024-03-06T15:13:42;9.73;;;5.35;;
80185;SDS011;69904;52.122;5.422;2024-03-06T15:16:08;7.93;;;4.75;;